Time;durP1;ratioP1;P1;durP2;ratioP2;P2;SDS_P1;SDS_P2;PMS_P1;PMS_P2;Temp;Humidity;BMP_temperature;BMP_pressure;BME280_temperature;BME280_humidity;BME280_pressure;Samples;Min_cycle;Max_cycle;Signal;HPM_P1;HPM_P2
2021/06/30 00:01:48;;;;;;;6.78;2.13;;;;;;;;;;10419710;28;20049;-55
2021/06/30 00:06:54;;;;;;;8.02;2.20;;;;;;;;;;10407107;28;20107;-54
2021/06/30 00:12:01;;;;;;;6.18;2.30;;;;;;;;;;10406510;28;20506;-55
2021/06/30 00:17:08;;;;;;;8.55;2.22;;;;;;;;;;10407079;28;20131;-55
2021/06/30 00:22:15;;;;;;;10.40;2.55;;;;;;;;;;10370512;28;20037;-53
2021/06/30 00:27:22;;;;;;;9.65;2.60;;;;;;;;;;10428292;28;20498;-54
2021/06/30 00:32:28;;;;;;;9.32;2.70;;;;;;;;;;10406722;28;20417;-55
2021/06/30 00:37:35;;;;;;;9.27;2.80;;;;;;;;;;10406170;28;20085;-54
2021/06/30 00:42:41;;;;;;;6.88;2.95;;;;;;;;;;10406302;28;20065;-54
2021/06/30 00:47:48;;;;;;;8.25;2.53;;;;;;;;;;10405185;28;20085;-54
2021/06/30 00:52:54;;;;;;;10.05;3.03;;;;;;;;;;10406031;28;20051;-54
2021/06/30 00:58:01;;;;;;;6.88;3.10;;;;;;;;;;10413358;28;20053;-54
2021/06/30 01:03:08;;;;;;;8.35;2.70;;;;;;;;;;10418026;28;20073;-55
2021/06/30 01:08:14;;;;;;;6.70;2.80;;;;;;;;;;10404959;28;20378;-55
2021/06/30 01:13:21;;;;;;;9.05;2.60;;;;;;;;;;10408906;28;20457;-53
2021/06/30 01:18:31;;;;;;;7.28;2.60;;;;;;;;;;10424811;28;20251;-55
2021/06/30 01:23:39;;;;;;;11.65;2.80;;;;;;;;;;10408271;28;20156;-53
2021/06/30 01:28:46;;;;;;;7.03;3.10;;;;;;;;;;10418439;28;20087;-54
2021/06/30 01:33:52;;;;;;;7.20;2.75;;;;;;;;;;10409519;28;20527;-54
2021/06/30 01:38:58;;;;;;;10.65;3.20;;;;;;;;;;10416628;28;20521;-54
2021/06/30 01:44:05;;;;;;;14.70;4.22;;;;;;;;;;10411198;28;20105;-53
2021/06/30 01:49:12;;;;;;;10.80;3.38;;;;;;;;;;10404256;28;20053;-54
2021/06/30 01:54:19;;;;;;;6.90;2.92;;;;;;;;;;10408445;28;20475;-49
2021/06/30 01:59:25;;;;;;;11.20;3.10;;;;;;;;;;10418989;28;20148;-54
2021/06/30 02:04:32;;;;;;;15.77;4.15;;;;;;;;;;10442293;28;20079;-54
2021/06/30 02:09:39;;;;;;;13.68;4.43;;;;;;;;;;10431403;28;20471;-54
2021/06/30 02:14:45;;;;;;;10.05;3.85;;;;;;;;;;10435418;28;20083;-54
2021/06/30 02:19:52;;;;;;;13.57;4.43;;;;;;;;;;10425887;28;20150;-55
2021/06/30 02:24:58;;;;;;;13.55;3.65;;;;;;;;;;10432910;28;20123;-53
2021/06/30 02:30:10;;;;;;;8.43;3.20;;;;;;;;;;10438705;28;20091;-55
2021/06/30 02:35:22;;;;;;;8.20;3.20;;;;;;;;;;10429686;28;20537;-54
2021/06/30 02:40:29;;;;;;;9.50;3.50;;;;;;;;;;10436967;28;20057;-54
2021/06/30 02:45:36;;;;;;;16.02;4.25;;;;;;;;;;10421827;28;20081;-54
2021/06/30 02:50:42;;;;;;;12.38;4.53;;;;;;;;;;10452736;28;20107;-53
2021/06/30 02:55:49;;;;;;;10.02;3.63;;;;;;;;;;10437237;28;20496;-55
2021/06/30 03:00:58;;;;;;;10.47;4.17;;;;;;;;;;10432818;28;20053;-55
2021/06/30 03:06:04;;;;;;;13.80;4.20;;;;;;;;;;10429148;28;20050;-53
2021/06/30 03:11:11;;;;;;;11.40;3.67;;;;;;;;;;10424290;28;20058;-52
2021/06/30 03:16:17;;;;;;;14.90;4.20;;;;;;;;;;10417230;28;20108;-53
2021/06/30 03:21:24;;;;;;;12.82;3.92;;;;;;;;;;10432909;28;20480;-53
2021/06/30 03:26:30;;;;;;;14.32;3.67;;;;;;;;;;10433707;28;20049;-55
2021/06/30 03:31:37;;;;;;;10.40;3.88;;;;;;;;;;10421878;28;20143;-54
2021/06/30 03:36:43;;;;;;;10.68;4.05;;;;;;;;;;10420661;28;20056;-53
2021/06/30 03:41:49;;;;;;;13.57;4.10;;;;;;;;;;10422983;28;20068;-52
2021/06/30 03:46:56;;;;;;;14.98;4.47;;;;;;;;;;10425028;28;20151;-50
2021/06/30 03:52:03;;;;;;;8.93;3.50;;;;;;;;;;10420370;28;20072;-55
2021/06/30 03:57:09;;;;;;;10.85;3.80;;;;;;;;;;10414381;28;20140;-55
2021/06/30 04:02:15;;;;;;;13.45;4.50;;;;;;;;;;10419781;28;20087;-52
2021/06/30 04:07:22;;;;;;;14.13;4.18;;;;;;;;;;10416077;28;20045;-51
2021/06/30 04:12:28;;;;;;;12.85;4.45;;;;;;;;;;10429124;28;20103;-49
2021/06/30 04:17:35;;;;;;;8.90;3.70;;;;;;;;;;10420796;28;20154;-55
2021/06/30 04:22:41;;;;;;;8.77;3.78;;;;;;;;;;10424959;28;20099;-54
2021/06/30 04:27:48;;;;;;;14.15;3.53;;;;;;;;;;10430455;28;20135;-53
2021/06/30 04:32:54;;;;;;;9.43;3.50;;;;;;;;;;10432561;28;20095;-54
2021/06/30 04:38:02;;;;;;;9.75;3.42;;;;;;;;;;10427800;28;20461;-53
2021/06/30 04:43:08;;;;;;;7.15;3.60;;;;;;;;;;10407871;28;20053;-53
2021/06/30 04:48:15;;;;;;;12.90;4.07;;;;;;;;;;10427211;28;20481;-53
2021/06/30 04:53:21;;;;;;;9.95;3.30;;;;;;;;;;10409886;28;20054;-54
2021/06/30 04:58:28;;;;;;;11.10;3.10;;;;;;;;;;10405224;28;20157;-52
2021/06/30 05:03:34;;;;;;;11.43;3.15;;;;;;;;;;10420984;28;20579;-53
2021/06/30 05:08:41;;;;;;;7.38;3.00;;;;;;;;;;10408257;28;20570;-55
2021/06/30 05:13:47;;;;;;;9.63;2.65;;;;;;;;;;10418790;28;20104;-53
2021/06/30 05:18:53;;;;;;;6.05;2.70;;;;;;;;;;10424665;28;20131;-51
2021/06/30 05:24:00;;;;;;;8.95;2.90;;;;;;;;;;10419242;28;20112;-53
2021/06/30 05:29:06;;;;;;;7.63;2.88;;;;;;;;;;10424912;28;20065;-51
2021/06/30 05:34:13;;;;;;;5.70;2.40;;;;;;;;;;10428582;28;20413;-51
2021/06/30 05:39:20;;;;;;;7.78;2.40;;;;;;;;;;10423870;28;20407;-51
2021/06/30 05:44:26;;;;;;;4.65;2.00;;;;;;;;;;10414466;28;20072;-53
2021/06/30 05:49:33;;;;;;;6.35;2.35;;;;;;;;;;10437423;28;20118;-51
2021/06/30 05:54:39;;;;;;;6.50;2.40;;;;;;;;;;10439943;28;20083;-54
2021/06/30 05:59:46;;;;;;;9.27;2.17;;;;;;;;;;10443379;28;20080;-53
2021/06/30 06:04:53;;;;;;;4.82;2.13;;;;;;;;;;10424856;28;20068;-52
2021/06/30 06:09:59;;;;;;;6.53;2.47;;;;;;;;;;10430406;28;20131;-53
2021/06/30 06:15:10;;;;;;;8.07;2.20;;;;;;;;;;10426332;28;20076;-52
2021/06/30 06:20:16;;;;;;;6.88;2.30;;;;;;;;;;10427945;28;20092;-52
2021/06/30 06:25:22;;;;;;;5.88;2.40;;;;;;;;;;10408999;28;20081;-51
2021/06/30 06:30:30;;;;;;;5.90;2.30;;;;;;;;;;10414365;28;20064;-48
2021/06/30 06:35:37;;;;;;;4.95;2.00;;;;;;;;;;10416854;28;20124;-52
2021/06/30 06:40:43;;;;;;;5.97;2.70;;;;;;;;;;10414683;28;20528;-54
2021/06/30 06:45:50;;;;;;;9.88;3.05;;;;;;;;;;10422517;28;20142;-55
2021/06/30 06:50:56;;;;;;;7.25;2.55;;;;;;;;;;10423557;28;20457;-54
2021/06/30 06:56:08;;;;;;;8.35;3.03;;;;;;;;;;10416065;28;20125;-52
2021/06/30 07:01:14;;;;;;;11.02;2.70;;;;;;;;;;10398099;28;20152;-53
2021/06/30 07:06:21;;;;;;;12.75;3.08;;;;;;;;;;10418497;28;20128;-54
2021/06/30 07:11:27;;;;;;;9.98;3.45;;;;;;;;;;10427968;28;20080;-51
2021/06/30 07:16:34;;;;;;;9.45;2.70;;;;;;;;;;10407657;28;20140;-54
2021/06/30 07:21:40;;;;;;;8.68;2.67;;;;;;;;;;10419944;28;20049;-54
2021/06/30 07:26:47;;;;;;;8.98;2.65;;;;;;;;;;10431553;28;20480;-55
2021/06/30 07:31:56;;;;;;;5.57;2.28;;;;;;;;;;10407022;28;20269;-49
2021/06/30 07:37:02;;;;;;;6.33;2.63;;;;;;;;;;10421110;28;20136;-53
2021/06/30 07:42:09;;;;;;;8.63;2.22;;;;;;;;;;10404686;28;20050;-54
2021/06/30 07:47:15;;;;;;;5.57;1.90;;;;;;;;;;10375829;28;20108;-53
2021/06/30 07:52:17;;;;;;;6.03;1.90;;;;;;;;;;10413120;28;20128;-54
2021/06/30 07:57:19;;;;;;;6.47;2.00;;;;;;;;;;10429724;28;20051;-53
2021/06/30 08:02:20;;;;;;;5.88;1.70;;;;;;;;;;10400851;28;20041;-53
2021/06/30 08:07:22;;;;;;;5.20;1.70;;;;;;;;;;10425984;28;20140;-52
2021/06/30 08:12:27;;;;;;;3.92;2.00;;;;;;;;;;10433512;28;20551;-54
2021/06/30 08:17:29;;;;;;;4.18;1.70;;;;;;;;;;10441798;28;20151;-54
2021/06/30 08:22:30;;;;;;;4.25;1.58;;;;;;;;;;10419964;28;20079;-54
2021/06/30 08:27:33;;;;;;;3.28;1.50;;;;;;;;;;10416396;28;20135;-54
2021/06/30 08:32:35;;;;;;;6.13;1.58;;;;;;;;;;10412694;28;20140;-53
2021/06/30 08:37:41;;;;;;;6.75;1.70;;;;;;;;;;10414989;28;20140;-52
2021/06/30 08:42:43;;;;;;;4.22;1.60;;;;;;;;;;10421762;28;20469;-52
2021/06/30 08:47:45;;;;;;;3.30;1.58;;;;;;;;;;10428286;28;20055;-48
2021/06/30 08:52:47;;;;;;;3.92;1.45;;;;;;;;;;10419428;28;20053;-53
2021/06/30 08:58:07;;;;;;;3.53;1.42;;;;;;;;;;10407894;28;20049;-54
2021/06/30 09:03:15;;;;;;;6.07;1.50;;;;;;;;;;10401986;28;20136;-54
2021/06/30 09:08:17;;;;;;;4.68;1.50;;;;;;;;;;10420467;28;20133;-54
2021/06/30 09:13:22;;;;;;;3.42;1.50;;;;;;;;;;10428328;28;20124;-54
2021/06/30 09:18:30;;;;;;;3.42;1.40;;;;;;;;;;10438326;28;20044;-53
2021/06/30 09:23:32;;;;;;;2.08;1.30;;;;;;;;;;10422211;28;20128;-53
2021/06/30 09:28:41;;;;;;;5.70;1.48;;;;;;;;;;10440724;28;20059;-53
2021/06/30 09:33:52;;;;;;;5.40;1.58;;;;;;;;;;10416551;28;20052;-60
2021/06/30 09:38:54;;;;;;;2.60;1.27;;;;;;;;;;10383892;28;20053;-60
2021/06/30 09:44:03;;;;;;;2.72;1.33;;;;;;;;;;10382748;28;20124;-60
2021/06/30 09:49:06;;;;;;;5.30;1.50;;;;;;;;;;10402336;28;20348;-59
2021/06/30 09:54:16;;;;;;;2.42;1.30;;;;;;;;;;10373687;28;20132;-59
2021/06/30 09:59:21;;;;;;;3.78;1.23;;;;;;;;;;10381040;28;20594;-59
2021/06/30 10:04:26;;;;;;;2.17;1.30;;;;;;;;;;10378933;28;20054;-60
2021/06/30 10:09:28;;;;;;;1.88;1.10;;;;;;;;;;10378793;28;20521;-60
2021/06/30 10:14:30;;;;;;;3.53;1.40;;;;;;;;;;10395482;28;20042;-60
2021/06/30 10:19:32;;;;;;;4.43;1.50;;;;;;;;;;10398957;28;20049;-60
2021/06/30 10:24:34;;;;;;;2.70;1.35;;;;;;;;;;10427892;28;20409;-60
2021/06/30 10:29:38;;;;;;;2.85;1.63;;;;;;;;;;10428143;28;20179;-60
2021/06/30 10:34:44;;;;;;;3.63;1.45;;;;;;;;;;10424285;28;20128;-59
2021/06/30 10:39:47;;;;;;;2.60;1.20;;;;;;;;;;10405823;28;20057;-59
2021/06/30 10:44:49;;;;;;;1.92;1.40;;;;;;;;;;10433575;28;20120;-60
2021/06/30 10:50:10;;;;;;;4.13;1.33;;;;;;;;;;10441602;28;20136;-60
2021/06/30 10:55:31;;;;;;;2.58;1.40;;;;;;;;;;10416902;28;20504;-59
2021/06/30 11:00:33;;;;;;;1.48;1.20;;;;;;;;;;10439318;28;20140;-59
2021/06/30 11:05:34;;;;;;;3.05;1.30;;;;;;;;;;10408832;28;20045;-59
2021/06/30 11:10:36;;;;;;;4.57;1.30;;;;;;;;;;10428914;28;20084;-59
2021/06/30 11:15:38;;;;;;;3.97;1.63;;;;;;;;;;10415122;28;20124;-59
2021/06/30 11:20:53;;;;;;;2.65;1.60;;;;;;;;;;10419680;28;20045;-59
2021/06/30 11:25:55;;;;;;;2.80;1.40;;;;;;;;;;10408544;28;20586;-59
2021/06/30 11:30:57;;;;;;;2.08;1.52;;;;;;;;;;10427013;28;20544;-59
2021/06/30 11:36:02;;;;;;;2.20;1.40;;;;;;;;;;10429976;28;20087;-59
2021/06/30 11:41:26;;;;;;;1.98;1.40;;;;;;;;;;10429582;28;20049;-59
2021/06/30 11:46:27;;;;;;;3.88;1.40;;;;;;;;;;10418278;28;20137;-59
2021/06/30 11:51:29;;;;;;;3.45;1.58;;;;;;;;;;10412581;28;20166;-59
2021/06/30 11:56:30;;;;;;;2.85;1.30;;;;;;;;;;10420594;28;20081;-59
2021/06/30 12:01:37;;;;;;;2.15;1.35;;;;;;;;;;10410682;28;20050;-59
2021/06/30 12:06:39;;;;;;;4.10;1.55;;;;;;;;;;10396021;28;20436;-58
2021/06/30 12:11:43;;;;;;;2.95;1.30;;;;;;;;;;10420726;28;20135;-59
2021/06/30 12:16:59;;;;;;;2.50;1.33;;;;;;;;;;10405168;28;20075;-59
2021/06/30 12:22:01;;;;;;;2.22;1.40;;;;;;;;;;10436046;28;20500;-59
2021/06/30 12:27:04;;;;;;;2.38;1.50;;;;;;;;;;10417584;28;20045;-59
2021/06/30 12:32:10;;;;;;;2.47;1.40;;;;;;;;;;10407529;28;20132;-59
2021/06/30 12:37:22;;;;;;;5.72;1.40;;;;;;;;;;10421473;28;20056;-59
2021/06/30 12:42:43;;;;;;;2.75;1.42;;;;;;;;;;10425589;28;20049;-59
2021/06/30 12:47:52;;;;;;;4.53;1.45;;;;;;;;;;10426137;28;20124;-59
2021/06/30 12:53:23;;;;;;;3.25;1.40;;;;;;;;;;10405061;28;20060;-59
2021/06/30 12:58:44;;;;;;;4.57;1.38;;;;;;;;;;10412282;28;20049;-58
2021/06/30 13:03:50;;;;;;;3.22;1.50;;;;;;;;;;10428326;28;20053;-58
2021/06/30 13:08:58;;;;;;;4.80;1.50;;;;;;;;;;10398878;28;20125;-58
2021/06/30 13:14:02;;;;;;;4.25;1.45;;;;;;;;;;10396525;28;20084;-58
2021/06/30 13:19:06;;;;;;;3.45;1.40;;;;;;;;;;10424197;28;20122;-58
2021/06/30 13:24:15;;;;;;;3.08;1.35;;;;;;;;;;10412027;28;20045;-58
2021/06/30 13:34:24;;;;;;;1.98;1.20;;;;;;;;;;10382169;28;20751;-58
2021/06/30 13:39:27;;;;;;;1.90;1.20;;;;;;;;;;10400461;28;20111;-58
2021/06/30 13:44:29;;;;;;;2.38;1.50;;;;;;;;;;10379578;28;20042;-58
2021/06/30 13:49:31;;;;;;;1.40;1.20;;;;;;;;;;10397924;28;20041;-58
2021/06/30 13:54:33;;;;;;;1.67;1.30;;;;;;;;;;10403412;28;20132;-57
2021/06/30 13:59:36;;;;;;;2.92;1.10;;;;;;;;;;10413454;28;20424;-58
2021/06/30 14:04:37;;;;;;;2.05;1.20;;;;;;;;;;10410287;28;20045;-58
2021/06/30 14:09:39;;;;;;;4.45;1.20;;;;;;;;;;10420589;28;20060;-57
2021/06/30 14:14:40;;;;;;;1.25;1.10;;;;;;;;;;10412996;28;20410;-58
2021/06/30 14:19:43;;;;;;;1.90;1.17;;;;;;;;;;10432525;28;20064;-59
2021/06/30 14:24:44;;;;;;;6.55;1.27;;;;;;;;;;10439716;28;20076;-58
2021/06/30 14:29:46;;;;;;;3.38;1.20;;;;;;;;;;10399153;28;20136;-59
2021/06/30 14:34:48;;;;;;;1.75;0.90;;;;;;;;;;10412517;28;20059;-58
2021/06/30 14:39:50;;;;;;;1.45;1.10;;;;;;;;;;10399738;28;20140;-58
2021/06/30 14:44:52;;;;;;;0.60;0.60;;;;;;;;;;10401054;28;20081;-59
2021/06/30 14:49:53;;;;;;;2.08;0.88;;;;;;;;;;10399637;28;20059;-58
2021/06/30 14:54:55;;;;;;;1.02;0.80;;;;;;;;;;10400820;28;20133;-58
2021/06/30 14:59:57;;;;;;;1.73;0.70;;;;;;;;;;10399321;28;20402;-58
2021/06/30 15:04:58;;;;;;;1.67;0.80;;;;;;;;;;10398472;28;20611;-59
2021/06/30 15:10:00;;;;;;;2.83;0.60;;;;;;;;;;10405307;28;20049;-58
2021/06/30 15:15:02;;;;;;;0.63;0.63;;;;;;;;;;10403236;28;20136;-58
2021/06/30 15:20:05;;;;;;;1.25;0.80;;;;;;;;;;10407121;28;20068;-58
2021/06/30 15:25:07;;;;;;;0.70;0.70;;;;;;;;;;10407283;28;20065;-58
2021/06/30 15:30:10;;;;;;;2.63;0.98;;;;;;;;;;10407107;28;20145;-58
2021/06/30 15:35:12;;;;;;;2.10;0.90;;;;;;;;;;10406252;28;20084;-59
2021/06/30 15:40:15;;;;;;;4.03;1.00;;;;;;;;;;10396105;28;20409;-59
2021/06/30 15:45:16;;;;;;;2.40;1.00;;;;;;;;;;10422471;28;20122;-58
2021/06/30 15:50:18;;;;;;;1.48;0.90;;;;;;;;;;10422311;28;20175;-58
2021/06/30 15:55:20;;;;;;;1.25;0.88;;;;;;;;;;10406203;28;20124;-59
2021/06/30 16:00:23;;;;;;;0.85;0.80;;;;;;;;;;10406213;28;20053;-58
2021/06/30 16:05:27;;;;;;;1.55;0.98;;;;;;;;;;10406490;28;20054;-58
2021/06/30 16:10:28;;;;;;;1.70;0.90;;;;;;;;;;10395161;28;20136;-59
2021/06/30 16:15:30;;;;;;;1.52;1.00;;;;;;;;;;10378292;28;20160;-59
2021/06/30 16:20:51;;;;;;;2.83;1.00;;;;;;;;;;10404291;28;20045;-58
2021/06/30 16:25:53;;;;;;;2.60;1.00;;;;;;;;;;10404543;28;20057;-58
2021/06/30 16:30:55;;;;;;;4.53;1.33;;;;;;;;;;10405144;28;20132;-58
2021/06/30 16:35:57;;;;;;;3.80;1.30;;;;;;;;;;10404183;28;20057;-58
2021/06/30 16:40:59;;;;;;;1.85;1.30;;;;;;;;;;10419339;28;20055;-58
2021/06/30 16:46:02;;;;;;;3.33;1.40;;;;;;;;;;10403510;28;20136;-58
2021/06/30 16:51:03;;;;;;;4.10;1.42;;;;;;;;;;10404158;28;20153;-58
2021/06/30 16:56:05;;;;;;;4.95;1.60;;;;;;;;;;10402186;28;20132;-58
2021/06/30 17:01:06;;;;;;;3.88;1.48;;;;;;;;;;10407251;28;20063;-58
2021/06/30 17:06:08;;;;;;;2.08;1.20;;;;;;;;;;10421860;28;20041;-58
2021/06/30 17:11:10;;;;;;;3.60;1.60;;;;;;;;;;10412644;28;20048;-58
2021/06/30 17:16:12;;;;;;;1.88;0.95;;;;;;;;;;10399362;28;20144;-58
2021/06/30 17:21:15;;;;;;;1.63;1.10;;;;;;;;;;10397301;28;20052;-59
2021/06/30 17:26:17;;;;;;;4.35;1.23;;;;;;;;;;10397835;28;20163;-59
2021/06/30 17:31:18;;;;;;;2.38;1.08;;;;;;;;;;10402369;28;20083;-58
2021/06/30 17:41:33;;;;;;;2.50;1.35;;;;;;;;;;10319680;28;20051;-79
2021/06/30 17:46:35;;;;;;;3.90;1.35;;;;;;;;;;10309756;28;20053;-79
2021/06/30 17:51:37;;;;;;;2.17;1.33;;;;;;;;;;10314290;28;20507;-80
2021/06/30 17:56:52;;;;;;;3.72;1.50;;;;;;;;;;10322373;28;20077;-81
2021/06/30 18:01:58;;;;;;;3.08;1.30;;;;;;;;;;10321104;28;20056;-80
2021/06/30 18:07:00;;;;;;;3.08;1.40;;;;;;;;;;10316804;28;20547;-80
2021/06/30 18:12:02;;;;;;;2.97;1.35;;;;;;;;;;10321257;28;20050;-81
2021/06/30 18:17:04;;;;;;;2.08;1.50;;;;;;;;;;10302191;28;20523;-80
2021/06/30 18:22:06;;;;;;;2.25;1.60;;;;;;;;;;10320681;28;20054;-81
2021/06/30 18:27:07;;;;;;;2.88;1.70;;;;;;;;;;10321655;28;20126;-81
2021/06/30 18:32:10;;;;;;;1.67;1.40;;;;;;;;;;10321414;28;20519;-81
2021/06/30 18:37:11;;;;;;;2.00;1.48;;;;;;;;;;10320173;28;20121;-82
2021/06/30 18:42:13;;;;;;;2.67;1.50;;;;;;;;;;10340764;28;20141;-82
2021/06/30 18:47:15;;;;;;;3.05;1.60;;;;;;;;;;10313256;28;20066;-82
2021/06/30 18:52:16;;;;;;;3.05;1.98;;;;;;;;;;10347909;28;20168;-82
2021/06/30 18:57:18;;;;;;;5.95;1.70;;;;;;;;;;10329997;28;20058;-82
2021/06/30 19:02:20;;;;;;;3.90;1.90;;;;;;;;;;10330460;28;20105;-82
2021/06/30 19:07:21;;;;;;;3.75;1.80;;;;;;;;;;10325500;28;20050;-82
2021/06/30 19:12:23;;;;;;;3.35;1.85;;;;;;;;;;10315718;28;20082;-82
2021/06/30 19:17:25;;;;;;;5.50;1.95;;;;;;;;;;10327780;28;20156;-82
2021/06/30 19:22:26;;;;;;;4.65;1.88;;;;;;;;;;10328038;28;20085;-82
2021/06/30 19:27:28;;;;;;;5.50;2.00;;;;;;;;;;10328551;28;20108;-82
2021/06/30 19:32:30;;;;;;;5.03;1.80;;;;;;;;;;10329980;28;20157;-83
2021/06/30 19:37:32;;;;;;;3.97;2.63;;;;;;;;;;10328807;28;20097;-82
2021/06/30 19:42:33;;;;;;;5.25;2.40;;;;;;;;;;10326168;28;20141;-82
2021/06/30 19:47:38;;;;;;;6.15;2.78;;;;;;;;;;10333398;28;20526;-82
2021/06/30 19:52:40;;;;;;;4.03;2.92;;;;;;;;;;10325767;28;20529;-82
2021/06/30 19:57:43;;;;;;;6.30;3.00;;;;;;;;;;10309557;28;20085;-82
2021/06/30 20:02:45;;;;;;;6.47;3.20;;;;;;;;;;10326660;28;20142;-82
2021/06/30 20:07:47;;;;;;;6.43;3.30;;;;;;;;;;10309425;28;20084;-82
2021/06/30 20:12:49;;;;;;;5.32;3.63;;;;;;;;;;10300751;28;20133;-82
2021/06/30 20:17:51;;;;;;;7.05;3.30;;;;;;;;;;10323573;28;20077;-82
2021/06/30 20:22:52;;;;;;;8.25;3.83;;;;;;;;;;10325360;28;20119;-82
2021/06/30 20:27:54;;;;;;;6.78;4.57;;;;;;;;;;10326327;28;20074;-82
2021/06/30 20:32:59;;;;;;;4.90;3.88;;;;;;;;;;10325896;28;20507;-82
2021/06/30 20:38:00;;;;;;;6.70;4.75;;;;;;;;;;10325177;28;20503;-82
2021/06/30 20:43:04;;;;;;;7.43;4.53;;;;;;;;;;10306770;28;20046;-82
2021/06/30 20:48:06;;;;;;;6.50;4.10;;;;;;;;;;10325431;28;20089;-82
2021/06/30 20:53:08;;;;;;;6.63;4.13;;;;;;;;;;10324381;28;20090;-82
2021/06/30 20:58:09;;;;;;;5.05;4.32;;;;;;;;;;10325012;28;20540;-82
2021/06/30 21:03:11;;;;;;;9.55;4.55;;;;;;;;;;10325731;28;20114;-82
2021/06/30 21:08:12;;;;;;;7.15;4.60;;;;;;;;;;10325616;28;20093;-82
2021/06/30 21:13:14;;;;;;;7.95;4.43;;;;;;;;;;10324681;28;20134;-82
2021/06/30 21:18:16;;;;;;;6.43;4.20;;;;;;;;;;10325465;28;20161;-82
2021/06/30 21:23:19;;;;;;;5.68;3.88;;;;;;;;;;10324744;28;20105;-82
2021/06/30 21:28:20;;;;;;;6.55;4.28;;;;;;;;;;10324712;28;20126;-82
2021/06/30 21:33:25;;;;;;;6.05;4.30;;;;;;;;;;10326506;28;20086;-82
2021/06/30 21:38:27;;;;;;;7.70;4.10;;;;;;;;;;10324054;28;20061;-82
2021/06/30 21:43:30;;;;;;;5.15;3.75;;;;;;;;;;10324344;28;20089;-82
2021/06/30 21:48:31;;;;;;;8.30;4.10;;;;;;;;;;10324728;28;20133;-82
2021/06/30 21:53:33;;;;;;;6.75;3.97;;;;;;;;;;10323565;28;20106;-82
2021/06/30 21:58:37;;;;;;;5.22;3.97;;;;;;;;;;10319406;28;20090;-82
2021/06/30 22:03:38;;;;;;;5.47;3.83;;;;;;;;;;10323683;28;20085;-82
2021/06/30 22:08:40;;;;;;;6.03;3.90;;;;;;;;;;10306142;28;20077;-82
2021/06/30 22:13:41;;;;;;;7.30;4.10;;;;;;;;;;10331366;28;20137;-82
2021/06/30 22:18:43;;;;;;;5.72;4.20;;;;;;;;;;10328576;28;20046;-82
2021/06/30 22:23:45;;;;;;;6.53;3.90;;;;;;;;;;10331035;28;20088;-82
2021/06/30 22:28:47;;;;;;;5.45;3.60;;;;;;;;;;10314446;28;20108;-82
2021/06/30 22:33:48;;;;;;;4.22;3.45;;;;;;;;;;10329211;28;20133;-82
2021/06/30 22:38:50;;;;;;;8.43;3.67;;;;;;;;;;10331625;28;20597;-82
2021/06/30 22:43:52;;;;;;;4.78;3.40;;;;;;;;;;10330050;28;20150;-82
2021/06/30 22:48:53;;;;;;;4.20;3.25;;;;;;;;;;10329804;28;20149;-82
2021/06/30 22:53:55;;;;;;;7.03;3.20;;;;;;;;;;10324357;28;20488;-82
2021/06/30 22:58:56;;;;;;;4.68;2.70;;;;;;;;;;10330765;28;20054;-82
2021/06/30 23:03:58;;;;;;;3.80;2.20;;;;;;;;;;10340874;28;20471;-82
2021/06/30 23:08:59;;;;;;;5.50;2.50;;;;;;;;;;10312817;28;20117;-82
2021/06/30 23:14:01;;;;;;;3.95;2.72;;;;;;;;;;10329509;28;20116;-82
2021/06/30 23:19:03;;;;;;;3.45;2.50;;;;;;;;;;10324743;28;20082;-82
2021/06/30 23:24:05;;;;;;;3.45;2.33;;;;;;;;;;10327248;28;20074;-82
2021/06/30 23:29:07;;;;;;;3.63;2.30;;;;;;;;;;10327472;28;20046;-82
2021/06/30 23:34:09;;;;;;;4.10;2.40;;;;;;;;;;10326859;28;20486;-82
2021/06/30 23:39:10;;;;;;;4.00;2.30;;;;;;;;;;10327370;28;20129;-82
2021/06/30 23:44:12;;;;;;;4.03;2.30;;;;;;;;;;10328417;28;20125;-82
2021/06/30 23:49:13;;;;;;;5.20;2.88;;;;;;;;;;10325835;28;20089;-82
2021/06/30 23:54:15;;;;;;;5.95;2.70;;;;;;;;;;10328093;28;20112;-82
2021/06/30 23:59:18;;;;;;;4.75;2.70;;;;;;;;;;10327142;28;20153;-82
